﻿ProjectID	SampleID	SampleType	TaxonomyID	UniqCodeType	UniqCode	SampleName	ScientificName	CommonName	CollectionYear	CollectionMonth	CollectionDay	SamplingTimeStartEnd	SamplingTimeAMPM	SamplingDuration	WeatherStartEnd	CollectionRegion	CollectionCountry	CollectionArea	CollectionLatitudeFrom	CollectionLatitudeTo	CollectionLongitudeFrom	CollectionLongitudeTo	Sex	TissueOrgan	TissueLipid	TissueMoist	Weight	WeightUnit	Length	LengthUnit	LengthType	GrowthStage	Age	Disease	TemperatureStartEnd	WaterTemperatureStartEnd	pH	DO	EC	EC_temp	Salinity	SS	WaterDepthM	TransparencyM	WaterColor	SedimentTemperatureStartEnd	SedimentDepthM	SedimentAppearance	SedimentColor	SedimentSurfaceColor	SedimentOdor	SedimentImpurities	SedimentMoistureOnSiteAnalysis	IgnitionLossOnSiteAnalysis	SoilDepthM	FlowRate	MeanPM10	MeanTotalSuspendedParticles	HumidityStartEnd	WindDirectionStartEnd	WindSpeedMSStartEnd	AmountOfCollectedAirStartEnd	Remarks	RegisterDate	UpdateDate
PRA000022	SAA000961	ST024				A-1	Sediment	"Sediment core"	2009	6						Asia	Japan	"Lake Biwa, Shiga"	35.4513		136.0706833																										"0 - 0.005"																	2017/2/9	2019/7/12
PRA000022	SAA000962	ST024				A-3	Sediment	"Sediment core"	2009	6						Asia	Japan	"Lake Biwa, Shiga"	35.4513		136.0706833																										"0.01 - 0.015"																	2017/2/9	2019/7/12
PRA000022	SAA000963	ST024				A-5	Sediment	"Sediment core"	2009	6						Asia	Japan	"Lake Biwa, Shiga"	35.4513		136.0706833																										"0.02 - 0.025"																	2017/2/9	2019/7/12
PRA000022	SAA000964	ST024				A-7	Sediment	"Sediment core"	2009	6						Asia	Japan	"Lake Biwa, Shiga"	35.4513		136.0706833																										"0.03 - 0.035"																	2017/2/9	2019/7/12
PRA000022	SAA000965	ST024				A-9	Sediment	"Sediment core"	2009	6						Asia	Japan	"Lake Biwa, Shiga"	35.4513		136.0706833																										"0.04 - 0.045"																	2017/2/9	2019/7/12
PRA000022	SAA000966	ST024				A-11	Sediment	"Sediment core"	2009	6						Asia	Japan	"Lake Biwa, Shiga"	35.4513		136.0706833																										"0.05 - 0.055"																	2017/2/9	2019/7/12
PRA000022	SAA000967	ST024				A-13	Sediment	"Sediment core"	2009	6						Asia	Japan	"Lake Biwa, Shiga"	35.4513		136.0706833																										"0.06 - 0.065"																	2017/2/9	2019/7/12
PRA000022	SAA000968	ST024				A-15	Sediment	"Sediment core"	2009	6						Asia	Japan	"Lake Biwa, Shiga"	35.4513		136.0706833																										"0.07 - 0.075"																	2017/2/9	2019/7/12
PRA000022	SAA000969	ST024				B-1	Sediment	"Sediment core"	2009	6						Asia	Japan	"Lake Biwa, Shiga"	35.43248333		136.0842																										"0 - 0.005"																	2017/2/9	2019/7/12
PRA000022	SAA000970	ST024				B-3	Sediment	"Sediment core"	2009	6						Asia	Japan	"Lake Biwa, Shiga"	35.43248333		136.0842																										"0.01 - 0.015"																	2017/2/9	2019/7/12
PRA000022	SAA000971	ST024				B-5	Sediment	"Sediment core"	2009	6						Asia	Japan	"Lake Biwa, Shiga"	35.43248333		136.0842																										"0.02 - 0.025"																	2017/2/9	2019/7/12
PRA000022	SAA000972	ST024				B-7	Sediment	"Sediment core"	2009	6						Asia	Japan	"Lake Biwa, Shiga"	35.43248333		136.0842																										"0.03 - 0.035"																	2017/2/9	2019/7/12
PRA000022	SAA000973	ST024				B-9	Sediment	"Sediment core"	2009	6						Asia	Japan	"Lake Biwa, Shiga"	35.43248333		136.0842																										"0.04 - 0.045"																	2017/2/9	2019/7/12
PRA000022	SAA000974	ST024				B-11	Sediment	"Sediment core"	2009	6						Asia	Japan	"Lake Biwa, Shiga"	35.43248333		136.0842																										"0.05 - 0.055"																	2017/2/9	2019/7/12
PRA000022	SAA000975	ST024				B-13	Sediment	"Sediment core"	2009	6						Asia	Japan	"Lake Biwa, Shiga"	35.43248333		136.0842																										"0.06 - 0.065"																	2017/2/9	2019/7/12
PRA000022	SAA000976	ST024				B-15	Sediment	"Sediment core"	2009	6						Asia	Japan	"Lake Biwa, Shiga"	35.43248333		136.0842																										"0.07 - 0.075"																	2017/2/9	2019/7/12
PRA000022	SAA000977	ST024				C-1	Sediment	"Sediment core"	2009	6						Asia	Japan	"Lake Biwa, Shiga"	35.40296667		136.0967																										"0 - 0.005"																	2017/2/9	2019/7/12
PRA000022	SAA000978	ST024				C-3	Sediment	"Sediment core"	2009	6						Asia	Japan	"Lake Biwa, Shiga"	35.40296667		136.0967																										"0.01 - 0.015"																	2017/2/9	2019/7/12
PRA000022	SAA000979	ST024				C-5	Sediment	"Sediment core"	2009	6						Asia	Japan	"Lake Biwa, Shiga"	35.40296667		136.0967																										"0.02 - 0.025"																	2017/2/9	2019/7/12
PRA000022	SAA000980	ST024				C-7	Sediment	"Sediment core"	2009	6						Asia	Japan	"Lake Biwa, Shiga"	35.40296667		136.0967																										"0.03 - 0.035"																	2017/2/9	2019/7/12
PRA000022	SAA000981	ST024				C-9	Sediment	"Sediment core"	2009	6						Asia	Japan	"Lake Biwa, Shiga"	35.40296667		136.0967																										"0.04 - 0.045"																	2017/2/9	2019/7/12
PRA000022	SAA000982	ST024				C-11	Sediment	"Sediment core"	2009	6						Asia	Japan	"Lake Biwa, Shiga"	35.40296667		136.0967																										"0.05 - 0.055"																	2017/2/9	2019/7/12
PRA000022	SAA000983	ST024				C-13	Sediment	"Sediment core"	2009	6						Asia	Japan	"Lake Biwa, Shiga"	35.40296667		136.0967																										"0.06 - 0.065"																	2017/2/9	2019/7/12
PRA000022	SAA000984	ST024				C-15	Sediment	"Sediment core"	2009	6						Asia	Japan	"Lake Biwa, Shiga"	35.40296667		136.0967																										"0.07 - 0.075"																	2017/2/9	2019/7/12
PRA000022	SAA000985	ST024				D-1	Sediment	"Sediment core"	2009	6						Asia	Japan	"Lake Biwa, Shiga"	35.37823333		136.0982167																										"0 - 0.005"																	2017/2/9	2019/7/12
PRA000022	SAA000986	ST024				D-2	Sediment	"Sediment core"	2009	6						Asia	Japan	"Lake Biwa, Shiga"	35.37823333		136.0982167																										"0.005 - 0.01"																	2017/2/9	2019/7/12
PRA000022	SAA000987	ST024				D-3	Sediment	"Sediment core"	2009	6						Asia	Japan	"Lake Biwa, Shiga"	35.37823333		136.0982167																										"0.01 - 0.015"																	2017/2/9	2019/7/12
PRA000022	SAA000988	ST024				D-4	Sediment	"Sediment core"	2009	6						Asia	Japan	"Lake Biwa, Shiga"	35.37823333		136.0982167																										"0.015 - 0.02"																	2017/2/9	2019/7/12
PRA000022	SAA000989	ST024				D-5	Sediment	"Sediment core"	2009	6						Asia	Japan	"Lake Biwa, Shiga"	35.37823333		136.0982167																										"0.02 - 0.025"																	2017/2/9	2019/7/12
PRA000022	SAA000990	ST024				D-6	Sediment	"Sediment core"	2009	6						Asia	Japan	"Lake Biwa, Shiga"	35.37823333		136.0982167																										"0.025 - 0.03"																	2017/2/9	2019/7/12
PRA000022	SAA000991	ST024				D-7	Sediment	"Sediment core"	2009	6						Asia	Japan	"Lake Biwa, Shiga"	35.37823333		136.0982167																										"0.03 - 0.035"																	2017/2/9	2019/7/12
PRA000022	SAA000992	ST024				D-8	Sediment	"Sediment core"	2009	6						Asia	Japan	"Lake Biwa, Shiga"	35.37823333		136.0982167																										"0.035 - 0.04"																	2017/2/9	2019/7/12
PRA000022	SAA000993	ST024				D-9	Sediment	"Sediment core"	2009	6						Asia	Japan	"Lake Biwa, Shiga"	35.37823333		136.0982167																										"0.04 - 0.045"																	2017/2/9	2019/7/12
PRA000022	SAA000994	ST024				D-10	Sediment	"Sediment core"	2009	6						Asia	Japan	"Lake Biwa, Shiga"	35.37823333		136.0982167																										"0.045 - 0.05"																	2017/2/9	2019/7/12
PRA000022	SAA000995	ST024				D-11	Sediment	"Sediment core"	2009	6						Asia	Japan	"Lake Biwa, Shiga"	35.37823333		136.0982167																										"0.05 - 0.055"																	2017/2/9	2019/7/12
PRA000022	SAA000996	ST024				D-12	Sediment	"Sediment core"	2009	6						Asia	Japan	"Lake Biwa, Shiga"	35.37823333		136.0982167																										"0.055 - 0.06"																	2017/2/9	2019/7/12
PRA000022	SAA000997	ST024				D-13	Sediment	"Sediment core"	2009	6						Asia	Japan	"Lake Biwa, Shiga"	35.37823333		136.0982167																										"0.06 - 0.065"																	2017/2/9	2019/7/12
PRA000022	SAA000998	ST024				D-14	Sediment	"Sediment core"	2009	6						Asia	Japan	"Lake Biwa, Shiga"	35.37823333		136.0982167																										"0.065 - 0.07"																	2017/2/9	2019/7/12
PRA000022	SAA000999	ST024				D-15	Sediment	"Sediment core"	2009	6						Asia	Japan	"Lake Biwa, Shiga"	35.37823333		136.0982167																										"0.07 - 0.075"																	2017/2/9	2019/7/12
PRA000022	SAA001000	ST024				D-16	Sediment	"Sediment core"	2009	6						Asia	Japan	"Lake Biwa, Shiga"	35.37823333		136.0982167																										"0.075 - 0.08"																	2017/2/9	2019/7/12
PRA000022	SAA001001	ST024				E-1	Sediment	"Sediment core"	2009	6						Asia	Japan	"Lake Biwa, Shiga"	35.33648333		136.1031667																										"0 - 0.005"																	2017/2/9	2019/7/12
PRA000022	SAA001002	ST024				E-3	Sediment	"Sediment core"	2009	6						Asia	Japan	"Lake Biwa, Shiga"	35.33648333		136.1031667																										"0.01 - 0.015"																	2017/2/9	2019/7/12
PRA000022	SAA001003	ST024				E-5	Sediment	"Sediment core"	2009	6						Asia	Japan	"Lake Biwa, Shiga"	35.33648333		136.1031667																										"0.02 - 0.025"																	2017/2/9	2019/7/12
PRA000022	SAA001004	ST024				E-7	Sediment	"Sediment core"	2009	6						Asia	Japan	"Lake Biwa, Shiga"	35.33648333		136.1031667																										"0.03 - 0.035"																	2017/2/9	2019/7/12
PRA000022	SAA001005	ST024				E-9	Sediment	"Sediment core"	2009	6						Asia	Japan	"Lake Biwa, Shiga"	35.33648333		136.1031667																										"0.04 - 0.045"																	2017/2/9	2019/7/12
PRA000022	SAA001006	ST024				E-11	Sediment	"Sediment core"	2009	6						Asia	Japan	"Lake Biwa, Shiga"	35.33648333		136.1031667																										"0.05 - 0.055"																	2017/2/9	2019/7/12
PRA000022	SAA001007	ST024				E-13	Sediment	"Sediment core"	2009	6						Asia	Japan	"Lake Biwa, Shiga"	35.33648333		136.1031667																										"0.06 - 0.065"																	2017/2/9	2019/7/12
PRA000022	SAA001008	ST024				E-15	Sediment	"Sediment core"	2009	6						Asia	Japan	"Lake Biwa, Shiga"	35.33648333		136.1031667																										"0.07 - 0.075"																	2017/2/9	2019/7/12
PRA000022	SAA001009	ST024				F-1	Sediment	"Sediment core"	2009	6						Asia	Japan	"Lake Biwa, Shiga"	35.26376667		136.0557																										"0 - 0.005"																	2017/2/9	2019/7/12
PRA000022	SAA001010	ST024				F-3	Sediment	"Sediment core"	2009	6						Asia	Japan	"Lake Biwa, Shiga"	35.26376667		136.0557																										"0.01 - 0.015"																	2017/2/9	2019/7/12
PRA000022	SAA001011	ST024				F-5	Sediment	"Sediment core"	2009	6						Asia	Japan	"Lake Biwa, Shiga"	35.26376667		136.0557																										"0.02 - 0.025"																	2017/2/9	2019/7/12
PRA000022	SAA001012	ST024				F-7	Sediment	"Sediment core"	2009	6						Asia	Japan	"Lake Biwa, Shiga"	35.26376667		136.0557																										"0.03 - 0.035"																	2017/2/9	2019/7/12
PRA000022	SAA001013	ST024				F-9	Sediment	"Sediment core"	2009	6						Asia	Japan	"Lake Biwa, Shiga"	35.26376667		136.0557																										"0.04 - 0.045"																	2017/2/9	2019/7/12
PRA000022	SAA001014	ST024				F-11	Sediment	"Sediment core"	2009	6						Asia	Japan	"Lake Biwa, Shiga"	35.26376667		136.0557																										"0.05 - 0.055"																	2017/2/9	2019/7/12
PRA000022	SAA001015	ST024				F-13	Sediment	"Sediment core"	2009	6						Asia	Japan	"Lake Biwa, Shiga"	35.26376667		136.0557																										"0.06 - 0.065"																	2017/2/9	2019/7/12
PRA000022	SAA001016	ST024				F-15	Sediment	"Sediment core"	2009	6						Asia	Japan	"Lake Biwa, Shiga"	35.26376667		136.0557																										"0.07 - 0.075"																	2017/2/9	2019/7/12
PRA000022	SAA001017	ST024				G-1	Sediment	"Sediment core"	2009	6						Asia	Japan	"Lake Biwa, Shiga"	35.2126		135.9885167																										"0 - 0.005"																	2017/2/9	2019/7/12
PRA000022	SAA001018	ST024				G-3	Sediment	"Sediment core"	2009	6						Asia	Japan	"Lake Biwa, Shiga"	35.2126		135.9885167																										"0.01 - 0.015"																	2017/2/9	2019/7/12
PRA000022	SAA001019	ST024				G-5	Sediment	"Sediment core"	2009	6						Asia	Japan	"Lake Biwa, Shiga"	35.2126		135.9885167																										"0.02 - 0.025"																	2017/2/9	2019/7/12
PRA000022	SAA001020	ST024				G-7	Sediment	"Sediment core"	2009	6						Asia	Japan	"Lake Biwa, Shiga"	35.2126		135.9885167																										"0.03 - 0.035"																	2017/2/9	2019/7/12
PRA000022	SAA001021	ST024				G-9	Sediment	"Sediment core"	2009	6						Asia	Japan	"Lake Biwa, Shiga"	35.2126		135.9885167																										"0.04 - 0.045"																	2017/2/9	2019/7/12
PRA000022	SAA001022	ST024				G-11	Sediment	"Sediment core"	2009	6						Asia	Japan	"Lake Biwa, Shiga"	35.2126		135.9885167																										"0.05 - 0.055"																	2017/2/9	2019/7/12
PRA000022	SAA001023	ST024				G-13	Sediment	"Sediment core"	2009	6						Asia	Japan	"Lake Biwa, Shiga"	35.2126		135.9885167																										"0.06 - 0.065"																	2017/2/9	2019/7/12
PRA000022	SAA001024	ST024				G-15	Sediment	"Sediment core"	2009	6						Asia	Japan	"Lake Biwa, Shiga"	35.2126		135.9885167																										"0.07 - 0.075"																	2017/2/9	2019/7/12
PRA000022	SAA001025	ST024				A-1	Sediment	"Sediment core"	2009	12						Asia	Japan	"Lake Biwa, Shiga"	35.4513		136.0706833																										"0 - 0.005"																	2017/2/9	2019/7/12
PRA000022	SAA001026	ST024				A-2	Sediment	"Sediment core"	2009	12						Asia	Japan	"Lake Biwa, Shiga"	35.4513		136.0706833																										"0.005 - 0.01"																	2017/2/9	2019/7/12
PRA000022	SAA001027	ST024				A-3	Sediment	"Sediment core"	2009	12						Asia	Japan	"Lake Biwa, Shiga"	35.4513		136.0706833																										"0.01 - 0.015"																	2017/2/9	2019/7/12
PRA000022	SAA001028	ST024				A-4	Sediment	"Sediment core"	2009	12						Asia	Japan	"Lake Biwa, Shiga"	35.4513		136.0706833																										"0.015 - 0.02"																	2017/2/9	2019/7/12
PRA000022	SAA001029	ST024				A-5	Sediment	"Sediment core"	2009	12						Asia	Japan	"Lake Biwa, Shiga"	35.4513		136.0706833																										"0.02 - 0.025"																	2017/2/9	2019/7/12
PRA000022	SAA001030	ST024				A-7	Sediment	"Sediment core"	2009	12						Asia	Japan	"Lake Biwa, Shiga"	35.4513		136.0706833																										"0.03 - 0.035"																	2017/2/9	2019/7/12
PRA000022	SAA001031	ST024				A-9	Sediment	"Sediment core"	2009	12						Asia	Japan	"Lake Biwa, Shiga"	35.4513		136.0706833																										"0.04 - 0.045"																	2017/2/9	2019/7/12
PRA000022	SAA001032	ST024				A-11	Sediment	"Sediment core"	2009	12						Asia	Japan	"Lake Biwa, Shiga"	35.4513		136.0706833																										"0.05 - 0.055"																	2017/2/9	2019/7/12
PRA000022	SAA001033	ST024				A-13	Sediment	"Sediment core"	2009	12						Asia	Japan	"Lake Biwa, Shiga"	35.4513		136.0706833																										"0.06 - 0.065"																	2017/2/9	2019/7/12
PRA000022	SAA001034	ST024				A-15	Sediment	"Sediment core"	2009	12						Asia	Japan	"Lake Biwa, Shiga"	35.4513		136.0706833																										"0.07 - 0.075"																	2017/2/9	2019/7/12
PRA000022	SAA001035	ST024				B-1	Sediment	"Sediment core"	2009	12						Asia	Japan	"Lake Biwa, Shiga"	35.43248333		136.0842																										"0 - 0.005"																	2017/2/9	2019/7/12
PRA000022	SAA001036	ST024				B-2	Sediment	"Sediment core"	2009	12						Asia	Japan	"Lake Biwa, Shiga"	35.43248333		136.0842																										"0.005 - 0.01"																	2017/2/9	2019/7/12
PRA000022	SAA001037	ST024				B-3	Sediment	"Sediment core"	2009	12						Asia	Japan	"Lake Biwa, Shiga"	35.43248333		136.0842																										"0.01 - 0.015"																	2017/2/9	2019/7/12
PRA000022	SAA001038	ST024				B-4	Sediment	"Sediment core"	2009	12						Asia	Japan	"Lake Biwa, Shiga"	35.43248333		136.0842																										"0.015 - 0.02"																	2017/2/9	2019/7/12
PRA000022	SAA001039	ST024				B-5	Sediment	"Sediment core"	2009	12						Asia	Japan	"Lake Biwa, Shiga"	35.43248333		136.0842																										"0.02 - 0.025"																	2017/2/9	2019/7/12
PRA000022	SAA001040	ST024				B-7	Sediment	"Sediment core"	2009	12						Asia	Japan	"Lake Biwa, Shiga"	35.43248333		136.0842																										"0.03 - 0.035"																	2017/2/9	2019/7/12
PRA000022	SAA001041	ST024				B-9	Sediment	"Sediment core"	2009	12						Asia	Japan	"Lake Biwa, Shiga"	35.43248333		136.0842																										"0.04 - 0.045"																	2017/2/9	2019/7/12
PRA000022	SAA001042	ST024				B-11	Sediment	"Sediment core"	2009	12						Asia	Japan	"Lake Biwa, Shiga"	35.43248333		136.0842																										"0.05 - 0.055"																	2017/2/9	2019/7/12
PRA000022	SAA001043	ST024				B-13	Sediment	"Sediment core"	2009	12						Asia	Japan	"Lake Biwa, Shiga"	35.43248333		136.0842																										"0.06 - 0.065"																	2017/2/9	2019/7/12
PRA000022	SAA001044	ST024				B-15	Sediment	"Sediment core"	2009	12						Asia	Japan	"Lake Biwa, Shiga"	35.43248333		136.0842																										"0.07 - 0.075"																	2017/2/9	2019/7/12
PRA000022	SAA001045	ST024				C-1	Sediment	"Sediment core"	2009	12						Asia	Japan	"Lake Biwa, Shiga"	35.40296667		136.0967																										"0 - 0.005"																	2017/2/9	2019/7/12
PRA000022	SAA001046	ST024				C-2	Sediment	"Sediment core"	2009	12						Asia	Japan	"Lake Biwa, Shiga"	35.40296667		136.0967																										"0.005 - 0.01"																	2017/2/9	2019/7/12
PRA000022	SAA001047	ST024				C-3	Sediment	"Sediment core"	2009	12						Asia	Japan	"Lake Biwa, Shiga"	35.40296667		136.0967																										"0.01 - 0.015"																	2017/2/9	2019/7/12
PRA000022	SAA001048	ST024				C-4	Sediment	"Sediment core"	2009	12						Asia	Japan	"Lake Biwa, Shiga"	35.40296667		136.0967																										"0.015 - 0.02"																	2017/2/9	2019/7/12
PRA000022	SAA001049	ST024				C-5	Sediment	"Sediment core"	2009	12						Asia	Japan	"Lake Biwa, Shiga"	35.40296667		136.0967																										"0.02 - 0.025"																	2017/2/9	2019/7/12
PRA000022	SAA001050	ST024				C-7	Sediment	"Sediment core"	2009	12						Asia	Japan	"Lake Biwa, Shiga"	35.40296667		136.0967																										"0.03 - 0.035"																	2017/2/9	2019/7/12
PRA000022	SAA001051	ST024				C-9	Sediment	"Sediment core"	2009	12						Asia	Japan	"Lake Biwa, Shiga"	35.40296667		136.0967																										"0.04 - 0.045"																	2017/2/9	2019/7/12
PRA000022	SAA001052	ST024				C-11	Sediment	"Sediment core"	2009	12						Asia	Japan	"Lake Biwa, Shiga"	35.40296667		136.0967																										"0.05 - 0.055"																	2017/2/9	2019/7/12
PRA000022	SAA001053	ST024				C-13	Sediment	"Sediment core"	2009	12						Asia	Japan	"Lake Biwa, Shiga"	35.40296667		136.0967																										"0.06 - 0.065"																	2017/2/9	2019/7/12
PRA000022	SAA001054	ST024				C-15	Sediment	"Sediment core"	2009	12						Asia	Japan	"Lake Biwa, Shiga"	35.40296667		136.0967																										"0.07 - 0.075"																	2017/2/9	2019/7/12
PRA000022	SAA001055	ST024				D-1	Sediment	"Sediment core"	2009	12						Asia	Japan	"Lake Biwa, Shiga"	35.37823333		136.0982167																										"0 - 0.005"																	2017/2/9	2019/7/12
PRA000022	SAA001056	ST024				D-2	Sediment	"Sediment core"	2009	12						Asia	Japan	"Lake Biwa, Shiga"	35.37823333		136.0982167																										"0.005 - 0.01"																	2017/2/9	2019/7/12
PRA000022	SAA001057	ST024				D-3	Sediment	"Sediment core"	2009	12						Asia	Japan	"Lake Biwa, Shiga"	35.37823333		136.0982167																										"0.01 - 0.015"																	2017/2/9	2019/7/12
PRA000022	SAA001058	ST024				D-4	Sediment	"Sediment core"	2009	12						Asia	Japan	"Lake Biwa, Shiga"	35.37823333		136.0982167																										"0.015 - 0.02"																	2017/2/9	2019/7/12
PRA000022	SAA001059	ST024				D-5	Sediment	"Sediment core"	2009	12						Asia	Japan	"Lake Biwa, Shiga"	35.37823333		136.0982167																										"0.02 - 0.025"																	2017/2/9	2019/7/12
PRA000022	SAA001060	ST024				D-6	Sediment	"Sediment core"	2009	12						Asia	Japan	"Lake Biwa, Shiga"	35.37823333		136.0982167																										"0.025 - 0.03"																	2017/2/9	2019/7/12
PRA000022	SAA001061	ST024				D-7	Sediment	"Sediment core"	2009	12						Asia	Japan	"Lake Biwa, Shiga"	35.37823333		136.0982167																										"0.03 - 0.035"																	2017/2/9	2019/7/12
PRA000022	SAA001062	ST024				D-8	Sediment	"Sediment core"	2009	12						Asia	Japan	"Lake Biwa, Shiga"	35.37823333		136.0982167																										"0.035 - 0.04"																	2017/2/9	2019/7/12
PRA000022	SAA001063	ST024				D-9	Sediment	"Sediment core"	2009	12						Asia	Japan	"Lake Biwa, Shiga"	35.37823333		136.0982167																										"0.04 - 0.045"																	2017/2/9	2019/7/12
PRA000022	SAA001064	ST024				D-10	Sediment	"Sediment core"	2009	12						Asia	Japan	"Lake Biwa, Shiga"	35.37823333		136.0982167																										"0.045 - 0.05"																	2017/2/9	2019/7/12
PRA000022	SAA001065	ST024				D-11	Sediment	"Sediment core"	2009	12						Asia	Japan	"Lake Biwa, Shiga"	35.37823333		136.0982167																										"0.05 - 0.055"																	2017/2/9	2019/7/12
PRA000022	SAA001066	ST024				D-12	Sediment	"Sediment core"	2009	12						Asia	Japan	"Lake Biwa, Shiga"	35.37823333		136.0982167																										"0.055 - 0.06"																	2017/2/9	2019/7/12
PRA000022	SAA001067	ST024				D-13	Sediment	"Sediment core"	2009	12						Asia	Japan	"Lake Biwa, Shiga"	35.37823333		136.0982167																										"0.06 - 0.065"																	2017/2/9	2019/7/12
PRA000022	SAA001068	ST024				D-14	Sediment	"Sediment core"	2009	12						Asia	Japan	"Lake Biwa, Shiga"	35.37823333		136.0982167																										"0.065 - 0.07"																	2017/2/9	2019/7/12
PRA000022	SAA001069	ST024				D-15	Sediment	"Sediment core"	2009	12						Asia	Japan	"Lake Biwa, Shiga"	35.37823333		136.0982167																										"0.07 - 0.075"																	2017/2/9	2019/7/12
PRA000022	SAA001070	ST024				D-16	Sediment	"Sediment core"	2009	12						Asia	Japan	"Lake Biwa, Shiga"	35.37823333		136.0982167																										"0.075 - 0.08"																	2017/2/9	2019/7/12
PRA000022	SAA001071	ST024				E-1	Sediment	"Sediment core"	2009	12						Asia	Japan	"Lake Biwa, Shiga"	35.33648333		136.1031667																										"0 - 0.005"																	2017/2/9	2019/7/12
PRA000022	SAA001072	ST024				E-2	Sediment	"Sediment core"	2009	12						Asia	Japan	"Lake Biwa, Shiga"	35.33648333		136.1031667																										"0.005 - 0.01"																	2017/2/9	2019/7/12
PRA000022	SAA001073	ST024				E-3	Sediment	"Sediment core"	2009	12						Asia	Japan	"Lake Biwa, Shiga"	35.33648333		136.1031667																										"0.01 - 0.015"																	2017/2/9	2019/7/12
PRA000022	SAA001074	ST024				E-4	Sediment	"Sediment core"	2009	12						Asia	Japan	"Lake Biwa, Shiga"	35.33648333		136.1031667																										"0.015 - 0.02"																	2017/2/9	2019/7/12
PRA000022	SAA001075	ST024				E-5	Sediment	"Sediment core"	2009	12						Asia	Japan	"Lake Biwa, Shiga"	35.33648333		136.1031667																										"0.02 - 0.025"																	2017/2/9	2019/7/12
PRA000022	SAA001076	ST024				E-7	Sediment	"Sediment core"	2009	12						Asia	Japan	"Lake Biwa, Shiga"	35.33648333		136.1031667																										"0.03 - 0.035"																	2017/2/9	2019/7/12
PRA000022	SAA001077	ST024				E-9	Sediment	"Sediment core"	2009	12						Asia	Japan	"Lake Biwa, Shiga"	35.33648333		136.1031667																										"0.04 - 0.045"																	2017/2/9	2019/7/12
PRA000022	SAA001078	ST024				E-11	Sediment	"Sediment core"	2009	12						Asia	Japan	"Lake Biwa, Shiga"	35.33648333		136.1031667																										"0.05 - 0.055"																	2017/2/9	2019/7/17
PRA000022	SAA001079	ST024				E-13	Sediment	"Sediment core"	2009	12						Asia	Japan	"Lake Biwa, Shiga"	35.33648333		136.1031667																										"0.06 - 0.065"																	2017/2/9	2019/7/17
PRA000022	SAA001080	ST024				E-15	Sediment	"Sediment core"	2009	12						Asia	Japan	"Lake Biwa, Shiga"	35.33648333		136.1031667																										"0.07 - 0.075"																	2017/2/9	2019/7/17
PRA000022	SAA001081	ST024				F-1	Sediment	"Sediment core"	2009	12						Asia	Japan	"Lake Biwa, Shiga"	35.26376667		136.0557																										"0 - 0.005"																	2017/2/9	2019/7/17
PRA000022	SAA001082	ST024				F-2	Sediment	"Sediment core"	2009	12						Asia	Japan	"Lake Biwa, Shiga"	35.26376667		136.0557																										"0.005 - 0.01"																	2017/2/9	2019/7/17
PRA000022	SAA001083	ST024				F-3	Sediment	"Sediment core"	2009	12						Asia	Japan	"Lake Biwa, Shiga"	35.26376667		136.0557																										"0.01 - 0.015"																	2017/2/9	2019/7/17
PRA000022	SAA001084	ST024				F-4	Sediment	"Sediment core"	2009	12						Asia	Japan	"Lake Biwa, Shiga"	35.26376667		136.0557																										"0.015 - 0.02"																	2017/2/9	2019/7/17
PRA000022	SAA001085	ST024				F-5	Sediment	"Sediment core"	2009	12						Asia	Japan	"Lake Biwa, Shiga"	35.26376667		136.0557																										"0.02 - 0.025"																	2017/2/9	2019/7/17
PRA000022	SAA001086	ST024				F-7	Sediment	"Sediment core"	2009	12						Asia	Japan	"Lake Biwa, Shiga"	35.26376667		136.0557																										"0.03 - 0.035"																	2017/2/9	2019/7/17
PRA000022	SAA001087	ST024				F-9	Sediment	"Sediment core"	2009	12						Asia	Japan	"Lake Biwa, Shiga"	35.26376667		136.0557																										"0.04 - 0.045"																	2017/2/9	2019/7/17
PRA000022	SAA001088	ST024				F-11	Sediment	"Sediment core"	2009	12						Asia	Japan	"Lake Biwa, Shiga"	35.26376667		136.0557																										"0.05 - 0.055"																	2017/2/9	2019/7/17
PRA000022	SAA001089	ST024				F-13	Sediment	"Sediment core"	2009	12						Asia	Japan	"Lake Biwa, Shiga"	35.26376667		136.0557																										"0.06 - 0.065"																	2017/2/9	2019/7/17
PRA000022	SAA001090	ST024				F-15	Sediment	"Sediment core"	2009	12						Asia	Japan	"Lake Biwa, Shiga"	35.26376667		136.0557																										"0.07 - 0.075"																	2017/2/9	2019/7/17
PRA000022	SAA001091	ST024				G-1	Sediment	"Sediment core"	2009	12						Asia	Japan	"Lake Biwa, Shiga"	35.2126		135.9885167																										"0 - 0.005"																	2017/2/9	2019/7/17
PRA000022	SAA001092	ST024				G-2	Sediment	"Sediment core"	2009	12						Asia	Japan	"Lake Biwa, Shiga"	35.2126		135.9885167																										"0.005 - 0.01"																	2017/2/9	2019/7/17
PRA000022	SAA001093	ST024				G-3	Sediment	"Sediment core"	2009	12						Asia	Japan	"Lake Biwa, Shiga"	35.2126		135.9885167																										"0.01 - 0.015"																	2017/2/9	2019/7/17
PRA000022	SAA001094	ST024				G-4	Sediment	"Sediment core"	2009	12						Asia	Japan	"Lake Biwa, Shiga"	35.2126		135.9885167																										"0.015 - 0.02"																	2017/2/9	2019/7/17
PRA000022	SAA001095	ST024				G-5	Sediment	"Sediment core"	2009	12						Asia	Japan	"Lake Biwa, Shiga"	35.2126		135.9885167																										"0.02 - 0.025"																	2017/2/9	2019/7/17
PRA000022	SAA001096	ST024				G-7	Sediment	"Sediment core"	2009	12						Asia	Japan	"Lake Biwa, Shiga"	35.2126		135.9885167																										"0.03 - 0.035"																	2017/2/9	2019/7/17
PRA000022	SAA001097	ST024				G-9	Sediment	"Sediment core"	2009	12						Asia	Japan	"Lake Biwa, Shiga"	35.2126		135.9885167																										"0.04 - 0.045"																	2017/2/9	2019/7/17
PRA000022	SAA001098	ST024				G-11	Sediment	"Sediment core"	2009	12						Asia	Japan	"Lake Biwa, Shiga"	35.2126		135.9885167																										"0.05 - 0.055"																	2017/2/9	2019/7/17
PRA000022	SAA001099	ST024				G-13	Sediment	"Sediment core"	2009	12						Asia	Japan	"Lake Biwa, Shiga"	35.2126		135.9885167																										"0.06 - 0.065"																	2017/2/9	2019/7/17
PRA000022	SAA001100	ST024				G-15	Sediment	"Sediment core"	2009	12						Asia	Japan	"Lake Biwa, Shiga"	35.2126		135.9885167																										"0.07 - 0.075"																	2017/2/9	2019/7/17
PRA000051	SAA003081	ST006	8496	es-BANK	ER00586	"1LA-FWC30488 (#2)"	"Alligator mississippiensis"	"American alligator"	2010	3	31					"North America"	America	"Lake Apoka, Florida"	28.67636944		-81.66466944		Female	Liver		67.61006289			251	cm	"Total Length"	Adult																															"Body length 228.5 cm"	2017/11/10	2017/11/10
PRA000051	SAA003082	ST006	8496	es-BANK	ER00588	"2LA-FWC32545 (#5)"	"Alligator mississippiensis"	"American alligator"	2010	3	31					"North America"	America	"Lake Apoka, Florida"	28.67601944		-81.66833889		Male	Liver		77.82426778			288	cm	"Total Length"	Adult																															"Body length  154 cm"	2017/11/10	2017/11/10
PRA000051	SAA003083	ST006	8496	es-BANK	ER00590	"3LA-FWC32548 (#8)"	"Alligator mississippiensis"	"American alligator"	2010	3	31					"North America"	America	"Lake Apoka, Florida"	28.5715		-81.6518		Female	Liver		75.15789474			197.6	cm	"Total Length"	Adult																															"Body length  103.8 cm"	2017/11/10	2017/11/10
PRA000051	SAA003084	ST006	8496	es-BANK	ER00592	"4LA-FWC32547 (#10)"	"Alligator mississippiensis"	"American alligator"	2010	3	31					"North America"	America	"Lake Apoka, Florida"	28.56261944		-81.66736944		Female	Liver		71.42099682			251.9	cm	"Total Length"	Adult																															"Body length  130.2 cm"	2017/11/10	2017/11/10
PRA000051	SAA003085	ST006	8496	es-BANK	ER00596	"5LA-FWC30474 (#16)"	"Alligator mississippiensis"	"American alligator"	2010	3	31					"North America"	America	"Lake Apoka, Florida"	28.65411944		-81.69016944		Male	Liver		75.34562212			289.5	cm	"Total Length"	Adult																															"Body length  146 cm"	2017/11/10	2017/11/10
PRA000051	SAA003086	ST006	8496	es-BANK	ER00598	"6LA-GFC37189 (#19)"	"Alligator mississippiensis"	"American alligator"	2010	4	9					"North America"	America	"Lake Apoka, Florida"	28.63408889		-81.69176944		Male	Liver		75.24204703			370	cm	"Total Length"	Adult																															"Body length  184 cm"	2017/11/10	2017/11/10
PRA000051	SAA003087	ST006	8496	es-BANK	ER00616	"7LA-FWC32542 (#40)"	"Alligator mississippiensis"	"American alligator"	2010	4	1					"North America"	America	"Lake Apoka, Florida"	28.67041111		-81.66991111		Female	Liver		69.45147679			228	cm	"Total Length"	Adult																															"Body length  111 cm"	2017/11/10	2017/11/10
PRA000051	SAA003088	ST006	8496	es-BANK	ER00587	"1LW-FWC30475 (#3)"	"Alligator mississippiensis"	"American alligator"	2010	4	5					"North America"	America	"Lake Woodruff National Wildlife Refuge, Florida"	29.08378889		-81.44098889		Female	Liver		69.94047619			200.1	cm	"Total Length"	Adult																															"Body length  99 cm"	2017/11/10	2017/11/10
PRA000051	SAA003089	ST006	8496	es-BANK	ER00589	"2LW-FWC32034 (#7)"	"Alligator mississippiensis"	"American alligator"	2010	4	5					"North America"	America	"Lake Woodruff National Wildlife Refuge, Florida"	29.13348056		-81.39153056		Male	Liver		73.71960683			286	cm	"Total Length"	Adult																															"Body length  165 cm"	2017/11/10	2017/11/10
PRA000051	SAA003090	ST006	8496	es-BANK	ER00594	"3LW-FWC30487 (#12)"	"Alligator mississippiensis"	"American alligator"	2010	4	5					"North America"	America	"Lake Woodruff National Wildlife Refuge, Florida"	29.09916944		-81.43763889		Female	Liver		75.33632287			203	cm	"Total Length"	Adult																															"Body length  105 cm"	2017/11/10	2017/11/10
PRA000051	SAA003091	ST006	8496	es-BANK	ER00595	"4LW-FWC30490 (#13)"	"Alligator mississippiensis"	"American alligator"	2010	4	5					"North America"	America	"Lake Woodruff National Wildlife Refuge, Florida"	29.10733056		-81.40573056		Male	Liver		75.44426494			252	cm	"Total Length"	Adult																															"Body length  134.5 cm"	2017/11/10	2017/11/10
PRA000051	SAA003092	ST006	8496	es-BANK	ER00600	"5LW-FWC32549 (#21)"	"Alligator mississippiensis"	"American alligator"	2010	4	5					"North America"	America	"Lake Woodruff National Wildlife Refuge, Florida"	29.09426111		-81.40543889		Male	Liver		74.54858126			285	cm	"Total Length"	Adult																															"Body length  149 cm"	2017/11/10	2017/11/10
PRA000051	SAA003093	ST006	8496	es-BANK	ER00603	"6LW-FWC32045 (#25)"	"Alligator mississippiensis"	"American alligator"	2010	4	5					"North America"	America	"Lake Woodruff National Wildlife Refuge, Florida"	29.08005		-81.41041111		Male	Liver		74.53358209			302.6	cm	"Total Length"	Adult																															"Body length  157.3 cm"	2017/11/10	2017/11/10
PRA000051	SAA003094	ST006	8496	es-BANK	ER00605	"7LW-FWC32042 (#27)"	"Alligator mississippiensis"	"American alligator"	2010	4	5					"North America"	America	"Lake Woodruff National Wildlife Refuge, Florida"	29.10738889		-81.40568889		Male	Liver		73.20169252			325	cm	"Total Length"	Adult																															"Body length  181 cm"	2017/11/10	2017/11/10
PRA000051	SAA003095	ST006	8496	es-BANK	ER00606	"8LW-FWC32550 (#28)"	"Alligator mississippiensis"	"American alligator"	2010	4	5					"North America"	America	"Lake Woodruff National Wildlife Refuge, Florida"	29.08833056		-81.4045		Male	Liver		73.00613497			336	cm	"Total Length"	Adult																															"Body length  171 cm"	2017/11/10	2017/11/10
PRA000051	SAA003096	ST006	8496	es-BANK	ER00608	"9LW-FWC32033 (#30)"	"Alligator mississippiensis"	"American alligator"	2010	4	5					"North America"	America	"Lake Woodruff National Wildlife Refuge, Florida"	29.09156111		-81.4045		Male	Liver		75.36231884			223	cm	"Total Length"	Adult																															"Body length  118 cm"	2017/11/10	2017/11/10
PRA000051	SAA003097	ST006	8496	es-BANK	ER00612	"10LW-FWC32038 (#35)"	"Alligator mississippiensis"	"American alligator"	2010	4	5					"North America"	America	"Lake Woodruff National Wildlife Refuge, Florida"	29.09273889		-81.40385		Male	Liver		77.02702703			290	cm	"Total Length"	Adult																															"Body length  140 cm"	2017/11/10	2017/11/10
PRA000051	SAA003098	ST006	8496	es-BANK	ER00613	"11LW-FWC32540 (#36)"	"Alligator mississippiensis"	"American alligator"	2010	3	31					"North America"	America	"Lake Woodruff National Wildlife Refuge, Florida"	28.4072		-81.39498889		Male	Liver		74.34119279			322.1	cm	"Total Length"	Adult																															"Body length 168.6 cm"	2017/11/10	2017/11/10
PRA000051	SAA003099	ST006	8496	es-BANK	ER00623	"12LW-FWC32039 (#47)"	"Alligator mississippiensis"	"American alligator"	2010	4	9					"North America"	America	"Lake Woodruff National Wildlife Refuge, Florida"	29.09663889		-81.45273056		Female	Liver		72.85067873			202	cm	"Total Length"	Adult																															"Body length 105 cm"	2017/11/10	2017/11/10
PRA000051	SAA003100	ST006	8496	es-BANK	ER00624	"13LW-FWC52249 (#49)"	"Alligator mississippiensis"	"American alligator"	2010	4	9					"North America"	America	"Lake Woodruff National Wildlife Refuge, Florida"	29.09723056		-81.44088056		Female	Liver		67.80735108			238	cm	"Total Length"	Adult																															"Body length 113 cm"	2017/11/10	2017/11/10
PRA000051	SAA003101	ST006	8496	es-BANK	ER00610	"1NA-FWC37184 (#32)"	"Alligator mississippiensis"	"American alligator"	2010	4	9					"North America"	America	"Merritt Island National Wildlife Refuge (NASA), Florida"	28.32701111		-80.36643056		Male	Liver		61.80555556			316	cm	"Total Length"	Adult																															"Body length 153 cm"	2017/11/10	2017/11/10
PRA000051	SAA003102	ST006	8496	es-BANK	ER00614	"2NA-FWC32029 (#37)"	"Alligator mississippiensis"	"American alligator"	2010	4	7					"North America"	America	"Merritt Island National Wildlife Refuge (NASA), Florida"	28.59441944		-80.66725		Male	Liver		72.49322493			277	cm	"Total Length"	Adult																															"Body length 137 cm"	2017/11/10	2017/11/10
PRA000051	SAA003103	ST006	8496	es-BANK	ER00617	"3NA-FWC32032 (#41)"	"Alligator mississippiensis"	"American alligator"	2010	4	7					"North America"	America	"Merritt Island National Wildlife Refuge (NASA), Florida"	28.50685		-80.64771111		Male	Liver		72.70375162			260	cm	"Total Length"	Adult																															"Body length 129 cm"	2017/11/10	2017/11/10
PRA000051	SAA003104	ST006	8496	es-BANK	ER00618	"4NA-NASA5310 (#42)"	"Alligator mississippiensis"	"American alligator"	2010	4	7					"North America"	America	"Merritt Island National Wildlife Refuge (NASA), Florida"	28.59441944		-80.66725		Male	Liver		71.875			298	cm	"Total Length"	Adult																															"Body length 149 cm"	2017/11/10	2017/11/10
PRA000051	SAA003105	ST006	8496	es-BANK	ER00619	"5NA-NASA5556 (#43)"	"Alligator mississippiensis"	"American alligator"	2010	4	7					"North America"	America	"Merritt Island National Wildlife Refuge (NASA), Florida"	28.52425		-80.63851111		Male	Liver		69.19917864			301	cm	"Total Length"	Adult																															"Body length 154 cm"	2017/11/10	2017/11/10
PRA000051	SAA003106	ST006	8496	es-BANK	ER00620	"6NA-NO TAG (#44)"	"Alligator mississippiensis"	"American alligator"	2010	4	7					"North America"	America	"Merritt Island National Wildlife Refuge (NASA), Florida"	28.59441944		-80.66725		Male	Liver		71.85089974			282	cm	"Total Length"	Adult																															"Body length 140 cm"	2017/11/10	2017/11/10
PRA000051	SAA003107	ST006	8496	es-BANK	ER00621	"7NA-FWC32044 (#45)"	"Alligator mississippiensis"	"American alligator"	2010	4	7					"North America"	America	"Merritt Island National Wildlife Refuge (NASA), Florida"	28.44338889		-80.60033889		Male	Liver		71.06382979			301	cm	"Total Length"	Adult																															"Body length 140 cm"	2017/11/10	2017/11/10
PRA000051	SAA003108	ST006	8496	es-BANK	ER00622	"8NA-NO TAG (#46)"	"Alligator mississippiensis"	"American alligator"	2010	4	7					"North America"	America	"Merritt Island National Wildlife Refuge (NASA), Florida"	28.64338056		-80.70581944		Male	Liver		74.81678881			293	cm	"Total Length"	Adult																															"Body length 147 cm"	2017/11/10	2017/11/10
PRA000051	SAA003109	ST006	8496	es-BANK	ER00591	"9NA-NASA5337 (#9)"	"Alligator mississippiensis"	"American alligator"	2010	4	7					"North America"	America	"Merritt Island National Wildlife Refuge (NASA), Florida"	28.50636944		-80.64508889		Male	Liver		73.62687245			256	cm	"Total Length"	Adult																															"Body length 124 cm"	2017/11/10	2017/11/10
PRA000051	SAA003110	ST006	8496	es-BANK	ER00597	"10NA-NASA5580 (#17)"	"Alligator mississippiensis"	"American alligator"	2010	4	7					"North America"	America	"Merritt Island National Wildlife Refuge (NASA), Florida"	28.30856111		-80.40598056		Male	Liver		77.12344281			261	cm	"Total Length"	Adult																															"Body length 127 cm"	2017/11/10	2017/11/10
PRA000051	SAA003111	ST006	8496	es-BANK	ER01243	1AD-31916	"Alligator mississippiensis"	"American alligator"	2009	4	15					"North America"	America	"Lake Apoka, Florida"	28.55583333	28.6825	-81.69444444	-81.54916667	Male	Liver			1.3	kg	83	cm	"Total Length"	Juvenile																															"Body length 39.3 cm"	2017/11/10	2017/11/10
PRA000051	SAA003112	ST006	8496	es-BANK	ER01244	2AD-32920	"Alligator mississippiensis"	"American alligator"	2009	4	15					"North America"	America	"Lake Apoka, Florida"	28.55583333	28.6825	-81.69444444	-81.54916667	Male	Liver			1.46	kg	83	cm	"Total Length"	Juvenile																															"Body length 40 cm"	2017/11/10	2017/11/10
PRA000051	SAA003113	ST006	8496	es-BANK	ER01245	3AD-31914	"Alligator mississippiensis"	"American alligator"	2009	4	15					"North America"	America	"Lake Apoka, Florida"	28.55583333	28.6825	-81.69444444	-81.54916667	Male	Liver			1.45	kg	88	cm	"Total Length"	Juvenile																															"Body length 42.5 cm"	2017/11/10	2017/11/10
PRA000051	SAA003114	ST006	8496	es-BANK	ER01246	4AD-31582	"Alligator mississippiensis"	"American alligator"	2009	4	15					"North America"	America	"Lake Apoka, Florida"	28.55583333	28.6825	-81.69444444	-81.54916667	Male	Liver			1.3	kg	83	cm	"Total Length"	Juvenile																															"Body length 39.4 cm"	2017/11/10	2017/11/10
PRA000051	SAA003115	ST006	8496	es-BANK	ER01247	5AD-32915	"Alligator mississippiensis"	"American alligator"	2009	4	15					"North America"	America	"Lake Apoka, Florida"	28.55583333	28.6825	-81.69444444	-81.54916667	Male	Liver			1.85	kg	87.8	cm	"Total Length"	Juvenile																															"Body length 43.3 cm"	2017/11/10	2017/11/10
PRA000051	SAA003116	ST006	8496	es-BANK	ER01248	6AD-31579	"Alligator mississippiensis"	"American alligator"	2009	4	15					"North America"	America	"Lake Apoka, Florida"	28.55583333	28.6825	-81.69444444	-81.54916667	Male	Liver			1.4	kg	84.6	cm	"Total Length"	Juvenile																															"Body length 41 cm"	2017/11/10	2017/11/10
PRA000051	SAA003117	ST006	8496	es-BANK	ER01249	7AD-31910	"Alligator mississippiensis"	"American alligator"	2009	4	15					"North America"	America	"Lake Apoka, Florida"	28.55583333	28.6825	-81.69444444	-81.54916667	Male	Liver			1.2	kg	80.5	cm	"Total Length"	Juvenile																															"Body length 38.5 cm"	2017/11/10	2017/11/10
PRA000051	SAA003118	ST006	8496	es-BANK	ER01250	8AD-32922	"Alligator mississippiensis"	"American alligator"	2009	4	15					"North America"	America	"Lake Apoka, Florida"	28.55583333	28.6825	-81.69444444	-81.54916667	Male	Liver			1.36	kg	83.5	cm	"Total Length"	Juvenile																															"Body length 40.5 cm"	2017/11/10	2017/11/10
PRA000051	SAA003119	ST006	8496	es-BANK	ER01273	31AD-31912	"Alligator mississippiensis"	"American alligator"	2009	4	15					"North America"	America	"Lake Apoka, Florida"	28.55583333	28.6825	-81.69444444	-81.54916667	Male	Liver			1.4	kg	87.3	cm	"Total Length"	Juvenile																															"Body length 41.2 cm"	2017/11/10	2017/11/10
PRA000051	SAA003120	ST006	8496	es-BANK	ER01253	11WD-32914	"Alligator mississippiensis"	"American alligator"	2009	4	17					"North America"	America	"Lake Woodruff National Wildlife Refuge, Florida"	29.02166667	29.14138889	-81.50138889	-81.355	Male	Liver			2.95	kg	105.8	cm	"Total Length"	Juvenile																															"Body length 52.9 cm"	2017/11/10	2017/11/10
PRA000051	SAA003121	ST006	8496	es-BANK	ER01254	12WD-32916	"Alligator mississippiensis"	"American alligator"	2009	4	17					"North America"	America	"Lake Woodruff National Wildlife Refuge, Florida"	29.02166667	29.14138889	-81.50138889	-81.355	Male	Liver			2.7	kg	98.5	cm	"Total Length"	Juvenile																															"Body length 48 cm"	2017/11/10	2017/11/10
PRA000051	SAA003122	ST006	8496	es-BANK	ER01255	13WD-32911	"Alligator mississippiensis"	"American alligator"	2009	4	17					"North America"	America	"Lake Woodruff National Wildlife Refuge, Florida"	29.02166667	29.14138889	-81.50138889	-81.355	Male	Liver			2.05	kg	94	cm	"Total Length"	Juvenile																															"Body length 45 cm"	2017/11/10	2017/11/10
PRA000051	SAA003123	ST006	8496	es-BANK	ER01256	14WD-32903	"Alligator mississippiensis"	"American alligator"	2009	4	17					"North America"	America	"Lake Woodruff National Wildlife Refuge, Florida"	29.02166667	29.14138889	-81.50138889	-81.355	Male	Liver			2.88	kg	107.4	cm	"Total Length"	Juvenile																															"Body length 52.9 cm"	2017/11/10	2017/11/10
PRA000051	SAA003124	ST006	8496	es-BANK	ER01257	15WD-32910	"Alligator mississippiensis"	"American alligator"	2009	4	17					"North America"	America	"Lake Woodruff National Wildlife Refuge, Florida"	29.02166667	29.14138889	-81.50138889	-81.355	Male	Liver			1.7	kg	89	cm	"Total Length"	Juvenile																															"Body length 44 cm"	2017/11/10	2017/11/10
PRA000051	SAA003125	ST006	8496	es-BANK	ER01258	16WD-31576	"Alligator mississippiensis"	"American alligator"	2009	4	17					"North America"	America	"Lake Woodruff National Wildlife Refuge, Florida"	29.02166667	29.14138889	-81.50138889	-81.355	Male	Liver			1.65	kg	88	cm	"Total Length"	Juvenile																															"Body length 42.9 cm"	2017/11/10	2017/11/10
PRA000051	SAA003126	ST006	8496	es-BANK	ER01259	17WD-31580	"Alligator mississippiensis"	"American alligator"	2009	4	17					"North America"	America	"Lake Woodruff National Wildlife Refuge, Florida"	29.02166667	29.14138889	-81.50138889	-81.355	Male	Liver			3.86	kg	111.7	cm	"Total Length"	Juvenile																															"Body length 56.7 cm"	2017/11/10	2017/11/10
PRA000051	SAA003127	ST006	8496	es-BANK	ER01260	18WD-32902	"Alligator mississippiensis"	"American alligator"	2009	4	17					"North America"	America	"Lake Woodruff National Wildlife Refuge, Florida"	29.02166667	29.14138889	-81.50138889	-81.355	Female	Liver			2.25	kg	98.5	cm	"Total Length"	Juvenile																															"Body length 47.8 cm"	2017/11/10	2017/11/10
PRA000051	SAA003128	ST006	8496	es-BANK	ER01261	19WD-31521	"Alligator mississippiensis"	"American alligator"	2009	4	17					"North America"	America	"Lake Woodruff National Wildlife Refuge, Florida"	29.02166667	29.14138889	-81.50138889	-81.355	Male	Liver			3.84	kg	114.5	cm	"Total Length"	Juvenile																															"Body length 55 cm"	2017/11/10	2017/11/10
PRA000051	SAA003129	ST006	8496	es-BANK	ER01262	20WD-32923	"Alligator mississippiensis"	"American alligator"	2009	4	17					"North America"	America	"Lake Woodruff National Wildlife Refuge, Florida"	29.02166667	29.14138889	-81.50138889	-81.355	Male	Liver			2	kg	91	cm	"Total Length"	Juvenile																															"Body length 43.5 cm"	2017/11/10	2017/11/10
PRA000051	SAA003130	ST006	8496	es-BANK	ER01263	21ND-3405	"Alligator mississippiensis"	"American alligator"	2009	4	20					"North America"	America	"Merritt Island National Wildlife Refuge (NASA), Florida"	28.40944444	28.79138889	-80.83777778	-80.52472222	Male	Liver			5.55	kg	130	cm	"Total Length"	Juvenile																															"Body length 63.5 cm"	2017/11/10	2017/11/10
PRA000051	SAA003131	ST006	8496	es-BANK	ER01264	22ND-3415	"Alligator mississippiensis"	"American alligator"	2009	4	20					"North America"	America	"Merritt Island National Wildlife Refuge (NASA), Florida"	28.40944444	28.79138889	-80.83777778	-80.52472222	Male	Liver			6.5	kg	130.2	cm	"Total Length"	Juvenile																															"Body length 62.4 cm"	2017/11/10	2017/11/10
PRA000051	SAA003132	ST006	8496	es-BANK	ER01265	23ND-3418	"Alligator mississippiensis"	"American alligator"	2009	4	20					"North America"	America	"Merritt Island National Wildlife Refuge (NASA), Florida"	28.40944444	28.79138889	-80.83777778	-80.52472222	Male	Liver			9.5	kg	149.5	cm	"Total Length"	Juvenile																															"Body length 72.8 cm"	2017/11/10	2017/11/10
PRA000051	SAA003133	ST006	8496	es-BANK	ER01266	24ND-3408	"Alligator mississippiensis"	"American alligator"	2009	4	20					"North America"	America	"Merritt Island National Wildlife Refuge (NASA), Florida"	28.40944444	28.79138889	-80.83777778	-80.52472222	Male	Liver			1.76	kg	89.5	cm	"Total Length"	Juvenile																															"Body length 43.6 cm"	2017/11/10	2017/11/10
PRA000051	SAA003134	ST006	8496	es-BANK	ER01267	25ND-3423	"Alligator mississippiensis"	"American alligator"	2009	4	20					"North America"	America	"Merritt Island National Wildlife Refuge (NASA), Florida"	28.40944444	28.79138889	-80.83777778	-80.52472222	Male	Liver			2.54	kg	98.7	cm	"Total Length"	Juvenile																															"Body length 47.7 cm"	2017/11/10	2017/11/10
PRA000051	SAA003135	ST006	8496	es-BANK	ER01268	26ND-3403	"Alligator mississippiensis"	"American alligator"	2009	4	20					"North America"	America	"Merritt Island National Wildlife Refuge (NASA), Florida"	28.40944444	28.79138889	-80.83777778	-80.52472222	Male	Liver			2	kg	96.5	cm	"Total Length"	Juvenile																															"Body length 47 cm"	2017/11/10	2017/11/10
PRA000051	SAA003136	ST006	8496	es-BANK	ER01269	27ND-3407	"Alligator mississippiensis"	"American alligator"	2009	4	20					"North America"	America	"Merritt Island National Wildlife Refuge (NASA), Florida"	28.40944444	28.79138889	-80.83777778	-80.52472222	Male	Liver			1.5	kg	82	cm	"Total Length"	Juvenile																															"Body length 41.6 cm"	2017/11/10	2017/11/10
PRA000051	SAA003137	ST006	8496	es-BANK	ER01270	28ND-3420	"Alligator mississippiensis"	"American alligator"	2009	4	20					"North America"	America	"Merritt Island National Wildlife Refuge (NASA), Florida"	28.40944444	28.79138889	-80.83777778	-80.52472222	Male	Liver			1.35	kg	66.5	cm	"Total Length"	Juvenile																															"Body length 41 cm"	2017/11/10	2017/11/10
PRA000051	SAA003138	ST006	8496	es-BANK	ER01271	29ND-3421	"Alligator mississippiensis"	"American alligator"	2009	4	20					"North America"	America	"Merritt Island National Wildlife Refuge (NASA), Florida"	28.40944444	28.79138889	-80.83777778	-80.52472222	Male	Liver			1.35	kg	85	cm	"Total Length"	Juvenile																															"Body length 40.7 cm"	2017/11/10	2017/11/10
PRA000051	SAA003139	ST006	8496	es-BANK	ER01272	30ND-3402	"Alligator mississippiensis"	"American alligator"	2009	4	20					"North America"	America	"Merritt Island National Wildlife Refuge (NASA), Florida"	28.40944444	28.79138889	-80.83777778	-80.52472222	Male	Liver			2.88	kg	103.9	cm	"Total Length"	Juvenile																															"Body length 50.1 cm"	2017/11/10	2017/11/10
PRA000051	SAA003140	ST006	8496	es-BANK	ER01275	33ND-3419	"Alligator mississippiensis"	"American alligator"	2009	4	20					"North America"	America	"Merritt Island National Wildlife Refuge (NASA), Florida"	28.40944444	28.79138889	-80.83777778	-80.52472222	Male	Liver			1.25	kg	85.3	cm	"Total Length"	Juvenile																															"Body length 40.4 cm"	2017/11/10	2017/11/10
